Time;durP1;ratioP1;P1;durP2;ratioP2;P2;SDS_P1;SDS_P2;PMS_P1;PMS_P2;Temp;Humidity;BMP_temperature;BMP_pressure;BME280_temperature;BME280_humidity;BME280_pressure;Samples;Min_cycle;Max_cycle;Signal;HPM_P1;HPM_P2
2021/10/26 00:00:37;;;;;;;;;;;;;;;22.14;28.16;99172.34;5007923;28;1891;-80
2021/10/26 00:03:02;;;;;;;;;;;;;;;22.04;28.67;99159.06;5006252;28;810;-81
2021/10/26 00:05:28;;;;;;;;;;;;;;;22.26;28.02;99154.78;4992513;28;977;-80
2021/10/26 00:07:53;;;;;;;;;;;;;;;22.25;28.22;99158.88;4987244;28;779;-80
2021/10/26 00:10:19;;;;;;;;;;;;;;;22.88;27.08;99155.69;4986840;28;907;-80
2021/10/26 00:12:44;;;;;;;;;;;;;;;22.55;27.45;99148.81;4987538;28;779;-80
2021/10/26 00:15:10;;;;;;;;;;;;;;;22.70;27.50;99150.22;4987038;28;1010;-80
2021/10/26 00:17:35;;;;;;;;;;;;;;;22.87;27.19;99149.19;4968702;29;1175;-80
2021/10/26 00:20:01;;;;;;;;;;;;;;;22.71;27.40;99157.50;4967154;29;1947;-80
2021/10/26 00:22:26;;;;;;;;;;;;;;;22.55;27.75;99138.25;4984902;28;905;-80
2021/10/26 00:24:52;;;;;;;;;;;;;;;22.88;27.20;99145.13;4967422;29;748;-80
2021/10/26 00:27:17;;;;;;;;;;;;;;;22.55;27.16;99148.81;4998734;28;922;-80
2021/10/26 00:29:43;;;;;;;;;;;;;;;22.47;27.73;99147.28;5007268;28;884;-80
2021/10/26 00:32:08;;;;;;;;;;;;;;;22.17;27.93;99145.97;5008963;28;818;-81
2021/10/26 00:34:33;;;;;;;;;;;;;;;22.22;28.16;99139.84;4982101;28;983;-80
2021/10/26 00:37:00;;;;;;;;;;;;;;;22.29;28.00;99141.81;4968600;29;811;-80
2021/10/26 00:39:25;;;;;;;;;;;;;;;22.26;28.02;99137.78;4985393;28;1267;-80
2021/10/26 00:41:51;;;;;;;;;;;;;;;22.33;28.05;99149.06;4987541;28;1979;-80
2021/10/26 00:44:16;;;;;;;;;;;;;;;22.23;28.00;99135.81;4966777;29;965;-80
2021/10/26 00:46:42;;;;;;;;;;;;;;;22.17;28.25;99134.63;4968775;29;1118;-80
2021/10/26 00:49:11;;;;;;;;;;;;;;;22.07;28.57;99144.03;4924912;29;1141;-80
2021/10/26 00:51:37;;;;;;;;;;;;;;;22.33;28.27;99126.38;4931902;29;1153;-80
2021/10/26 00:54:04;;;;;;;;;;;;;;;22.14;28.05;99129.84;4908627;29;1307;-80
2021/10/26 00:56:33;;;;;;;;;;;;;;;22.25;28.23;99124.84;4926636;29;1097;-80
2021/10/26 00:58:59;;;;;;;;;;;;;;;22.81;27.08;99128.19;4908565;29;904;-80
2021/10/26 01:01:25;;;;;;;;;;;;;;;22.85;26.82;99125.31;4926039;29;1950;-80
2021/10/26 01:03:51;;;;;;;;;;;;;;;22.67;27.35;99125.53;4909006;29;1241;-80
2021/10/26 01:06:19;;;;;;;;;;;;;;;23.00;27.04;99123.91;4865223;29;1407;-80
2021/10/26 01:08:45;;;;;;;;;;;;;;;23.03;26.71;99122.25;4886748;29;891;-80
2021/10/26 01:11:11;;;;;;;;;;;;;;;23.02;26.84;99120.63;4888974;29;948;-80
2021/10/26 01:13:41;;;;;;;;;;;;;;;23.03;26.83;99113.72;4888794;29;1541;-80
2021/10/26 01:16:07;;;;;;;;;;;;;;;22.86;26.96;99116.38;4877618;29;1197;-80
2021/10/26 01:18:33;;;;;;;;;;;;;;;22.73;26.85;99114.53;4920280;29;1543;-80
2021/10/26 01:20:58;;;;;;;;;;;;;;;22.56;27.24;99113.53;4963179;29;1985;-80
2021/10/26 01:23:25;;;;;;;;;;;;;;;22.47;27.46;99110.41;4984924;28;1168;-80
2021/10/26 01:25:51;;;;;;;;;;;;;;;22.29;28.04;99097.25;4968971;28;1189;-80
2021/10/26 01:28:17;;;;;;;;;;;;;;;22.00;28.32;99107.28;4925873;29;1232;-80
2021/10/26 01:30:42;;;;;;;;;;;;;;;22.19;28.13;99103.84;4929961;29;1141;-80
2021/10/26 01:33:27;;;;;;;;;;;;;;;22.30;27.98;99098.84;4926385;29;890;-80
2021/10/26 01:36:06;;;;;;;;;;;;;;;21.89;28.64;99092.41;4899767;29;1150;-80
2021/10/26 01:38:32;;;;;;;;;;;;;;;22.27;28.13;99099.69;4906696;29;1062;-80
2021/10/26 01:40:57;;;;;;;;;;;;;;;22.57;27.51;99089.59;4929376;29;1892;-80
2021/10/26 01:43:23;;;;;;;;;;;;;;;22.60;27.72;99088.75;4926186;29;1020;-80
2021/10/26 01:45:49;;;;;;;;;;;;;;;22.15;28.32;99086.06;4876192;29;1293;-80
2021/10/26 01:48:26;;;;;;;;;;;;;;;22.08;28.35;99086.13;4901804;29;1259;-80
2021/10/26 01:50:52;;;;;;;;;;;;;;;22.50;27.98;99082.00;4910074;29;1159;-80
2021/10/26 01:53:18;;;;;;;;;;;;;;;22.79;27.57;99085.22;4875751;29;1336;-80
2021/10/26 01:55:43;;;;;;;;;;;;;;;22.86;27.27;99090.81;4889917;29;1155;-80
2021/10/26 01:58:09;;;;;;;;;;;;;;;22.70;27.21;99082.13;4855747;29;1084;-80
2021/10/26 02:00:53;;;;;;;;;;;;;;;22.54;27.37;99073.47;4887555;29;1911;-80
2021/10/26 02:03:19;;;;;;;;;;;;;;;22.58;27.32;99080.66;4907896;29;1163;-80
2021/10/26 02:05:44;;;;;;;;;;;;;;;22.59;27.49;99070.94;4904323;29;1219;-80
2021/10/26 02:08:10;;;;;;;;;;;;;;;22.26;28.26;99086.75;4908086;29;1411;-81
2021/10/26 02:10:36;;;;;;;;;;;;;;;22.51;27.66;99079.97;4908971;29;1175;-80
2021/10/26 02:13:02;;;;;;;;;;;;;;;22.30;28.15;99079.00;4907274;29;1237;-80
2021/10/26 02:15:29;;;;;;;;;;;;;;;22.29;28.05;99073.78;4903901;29;1060;-80
2021/10/26 02:17:54;;;;;;;;;;;;;;;22.17;28.23;99072.28;4946054;29;1184;-80
2021/10/26 02:20:20;;;;;;;;;;;;;;;22.20;28.11;99082.78;4944894;29;1888;-80
2021/10/26 02:22:46;;;;;;;;;;;;;;;22.43;28.16;99081.28;4922639;29;1066;-80
2021/10/26 02:25:11;;;;;;;;;;;;;;;22.38;27.91;99078.91;4925365;29;844;-79
2021/10/26 02:27:38;;;;;;;;;;;;;;;22.51;27.68;99075.09;4926730;29;1127;-80
2021/10/26 02:30:03;;;;;;;;;;;;;;;22.30;28.02;99067.66;4905647;29;1106;-80
2021/10/26 02:32:30;;;;;;;;;;;;;;;22.61;27.77;99067.66;4903386;29;1087;-80
2021/10/26 02:34:56;;;;;;;;;;;;;;;22.92;27.43;99076.19;4888419;29;1045;-81
2021/10/26 02:37:22;;;;;;;;;;;;;;;23.01;26.91;99074.41;4890348;29;1127;-80
2021/10/26 02:39:47;;;;;;;;;;;;;;;22.80;27.38;99069.84;4888204;29;1915;-80
2021/10/26 02:42:12;;;;;;;;;;;;;;;23.01;26.96;99079.28;4878205;29;1054;-80
2021/10/26 02:44:38;;;;;;;;;;;;;;;22.77;27.59;99069.88;4905339;29;1142;-81
2021/10/26 02:47:04;;;;;;;;;;;;;;;22.80;27.11;99064.16;4908347;29;831;-80
2021/10/26 02:49:30;;;;;;;;;;;;;;;22.55;27.42;99058.03;4906735;29;1228;-80
2021/10/26 02:51:57;;;;;;;;;;;;;;;22.43;28.09;99064.25;4925665;29;1098;-80
2021/10/26 02:54:23;;;;;;;;;;;;;;;22.29;28.16;99059.59;4936467;29;1262;-80
2021/10/26 02:56:49;;;;;;;;;;;;;;;22.31;28.33;99057.94;4946483;29;1563;-80
2021/10/26 02:59:15;;;;;;;;;;;;;;;22.45;27.94;99056.16;4944364;29;1090;-80
2021/10/26 03:01:40;;;;;;;;;;;;;;;22.28;28.05;99053.13;4930905;29;1919;-80
2021/10/26 03:04:06;;;;;;;;;;;;;;;22.43;28.14;99056.56;4928411;29;1117;-81
2021/10/26 03:06:31;;;;;;;;;;;;;;;22.31;28.24;99057.94;4931677;29;1125;-80
2021/10/26 03:08:57;;;;;;;;;;;;;;;21.97;28.98;99057.13;4905978;29;1070;-80
2021/10/26 03:11:31;;;;;;;;;;;;;;;22.46;28.09;99060.59;4907809;29;1509;-80
2021/10/26 03:13:57;;;;;;;;;;;;;;;22.30;28.22;99058.38;4906708;29;1106;-81
2021/10/26 03:16:22;;;;;;;;;;;;;;;22.79;27.63;99054.03;4897154;29;1290;-80
2021/10/26 03:18:48;;;;;;;;;;;;;;;22.25;28.36;99056.78;4924088;29;1188;-80
2021/10/26 03:21:14;;;;;;;;;;;;;;;22.96;27.41;99048.56;4907898;29;1915;-80
2021/10/26 03:23:39;;;;;;;;;;;;;;;22.57;27.97;99049.88;4905177;29;1148;-80
2021/10/26 03:26:05;;;;;;;;;;;;;;;22.73;27.80;99052.91;4892351;29;1298;-80
2021/10/26 03:28:31;;;;;;;;;;;;;;;23.30;26.96;99052.03;4889644;29;1122;-80
2021/10/26 03:31:01;;;;;;;;;;;;;;;22.60;27.92;99043.38;4894132;29;785;-80
2021/10/26 03:33:46;;;;;;;;;;;;;;;22.96;27.11;99045.72;4891590;29;892;-80
2021/10/26 03:36:12;;;;;;;;;;;;;;;22.62;27.51;99040.91;4893345;29;1370;-80
2021/10/26 03:38:42;;;;;;;;;;;;;;;22.43;27.84;99050.09;4928141;29;1150;-79
2021/10/26 03:41:07;;;;;;;;;;;;;;;22.32;28.25;99045.34;4893203;29;1984;-80
2021/10/26 03:43:33;;;;;;;;;;;;;;;22.30;28.52;99036.47;4890285;29;1094;-80
2021/10/26 03:45:58;;;;;;;;;;;;;;;22.39;28.12;99038.00;4853243;29;1548;-80
2021/10/26 03:48:25;;;;;;;;;;;;;;;22.38;28.29;99044.88;4833835;29;869;-80
2021/10/26 03:50:51;;;;;;;;;;;;;;;22.19;28.66;99040.69;4836982;29;1159;-80
2021/10/26 03:53:17;;;;;;;;;;;;;;;22.33;28.49;99038.47;4868379;29;1071;-80
2021/10/26 03:55:45;;;;;;;;;;;;;;;22.07;28.74;99031.50;4891095;29;1208;-80
2021/10/26 03:58:11;;;;;;;;;;;;;;;22.47;28.46;99039.50;4903690;29;1548;-80
2021/10/26 04:00:41;;;;;;;;;;;;;;;22.54;28.07;99042.25;4908244;29;1995;-80
2021/10/26 04:03:22;;;;;;;;;;;;;;;22.90;27.73;99044.56;4886129;29;1226;-80
2021/10/26 04:06:01;;;;;;;;;;;;;;;22.56;28.10;99042.63;4908670;29;1183;-80
2021/10/26 04:08:34;;;;;;;;;;;;;;;22.72;27.90;99034.28;4871767;29;1143;-80
2021/10/26 04:11:06;;;;;;;;;;;;;;;22.77;28.09;99036.63;4876722;29;1609;-80
2021/10/26 04:13:32;;;;;;;;;;;;;;;22.91;27.78;99034.84;4836795;29;1665;-80
2021/10/26 04:16:00;;;;;;;;;;;;;;;23.09;27.08;99035.34;4856304;29;1731;-80
2021/10/26 04:18:28;;;;;;;;;;;;;;;22.77;27.54;99042.31;4853131;29;1147;-80
2021/10/26 04:20:53;;;;;;;;;;;;;;;22.44;28.02;99040.38;4872300;29;1915;-79
2021/10/26 04:23:19;;;;;;;;;;;;;;;22.33;28.68;99035.66;4871255;29;1422;-80
2021/10/26 04:25:44;;;;;;;;;;;;;;;22.54;28.20;99037.38;4855385;29;1361;-80
2021/10/26 04:28:10;;;;;;;;;;;;;;;22.30;28.79;99036.47;4853430;29;1066;-80
2021/10/26 04:30:37;;;;;;;;;;;;;;;22.52;28.59;99025.63;4855256;29;1142;-80
2021/10/26 04:33:03;;;;;;;;;;;;;;;22.34;28.71;99030.78;4839094;29;1176;-80
2021/10/26 04:35:30;;;;;;;;;;;;;;;22.34;28.66;99020.22;4851479;29;1242;-80
2021/10/26 04:37:56;;;;;;;;;;;;;;;22.19;28.83;99032.97;4910671;29;1703;-80
2021/10/26 04:40:22;;;;;;;;;;;;;;;22.42;28.80;99025.78;4838727;29;1919;-80
2021/10/26 04:42:48;;;;;;;;;;;;;;;21.77;29.54;99025.75;4853321;29;928;-80
2021/10/26 04:45:13;;;;;;;;;;;;;;;22.43;28.56;99024.56;4887336;29;1605;-80
2021/10/26 04:47:43;;;;;;;;;;;;;;;22.29;28.74;99028.41;4906647;29;1098;-80
2021/10/26 04:50:09;;;;;;;;;;;;;;;22.75;27.93;99027.75;4854404;29;1238;-80
2021/10/26 04:52:36;;;;;;;;;;;;;;;22.91;27.66;99026.34;4856115;29;1153;-80
2021/10/26 04:55:01;;;;;;;;;;;;;;;23.06;27.44;99030.56;4843942;29;1853;-79
2021/10/26 04:57:27;;;;;;;;;;;;;;;23.25;27.66;99026.97;4818356;29;1349;-80
2021/10/26 05:00:19;;;;;;;;;;;;;;;22.54;28.36;99039.41;4804276;29;1896;-79
2021/10/26 05:02:45;;;;;;;;;;;;;;;22.72;28.07;99039.94;4813708;29;1314;-80
2021/10/26 05:05:11;;;;;;;;;;;;;;;22.58;27.90;99042.97;4853175;29;1732;-80
2021/10/26 05:07:36;;;;;;;;;;;;;;;22.36;28.54;99045.31;4891164;29;1126;-80
2021/10/26 05:10:02;;;;;;;;;;;;;;;22.23;28.97;99045.09;4836677;29;1281;-80
2021/10/26 05:12:29;;;;;;;;;;;;;;;22.35;28.83;99046.56;4872000;29;1224;-81
2021/10/26 05:14:55;;;;;;;;;;;;;;;22.51;28.71;99046.72;4848173;29;1685;-80
2021/10/26 05:17:40;;;;;;;;;;;;;;;22.50;28.55;99050.00;4853032;29;1054;-80
2021/10/26 05:20:33;;;;;;;;;;;;;;;22.32;28.93;99039.69;4894564;29;1907;-80
2021/10/26 05:23:10;;;;;;;;;;;;;;;22.33;29.06;99051.84;4921166;29;1660;-80
2021/10/26 05:26:05;;;;;;;;;;;;;;;22.19;29.02;99047.16;4884470;29;1270;-80
2021/10/26 05:28:34;;;;;;;;;;;;;;;22.32;28.99;99039.69;4894191;29;1238;-80
2021/10/26 05:30:59;;;;;;;;;;;;;;;22.28;28.85;99047.44;4945261;29;977;-80
2021/10/26 05:33:25;;;;;;;;;;;;;;;21.93;29.74;99045.81;4924138;29;1756;-80
2021/10/26 05:35:50;;;;;;;;;;;;;;;22.44;28.83;99057.38;4927897;29;988;-81
2021/10/26 05:38:16;;;;;;;;;;;;;;;22.33;29.12;99046.19;4924634;29;999;-80
2021/10/26 05:40:42;;;;;;;;;;;;;;;22.23;29.25;99053.59;4926804;29;1888;-80
2021/10/26 05:43:07;;;;;;;;;;;;;;;22.51;28.77;99051.59;4902616;29;1587;-80
2021/10/26 05:45:33;;;;;;;;;;;;;;;23.05;27.86;99046.78;4892912;29;1046;-80
2021/10/26 05:47:58;;;;;;;;;;;;;;;22.40;28.92;99057.41;4913498;29;939;-80
2021/10/26 05:50:23;;;;;;;;;;;;;;;22.86;28.21;99051.09;4926491;29;996;-80
2021/10/26 05:52:49;;;;;;;;;;;;;;;22.81;28.17;99060.09;4928021;29;1127;-80
2021/10/26 05:55:15;;;;;;;;;;;;;;;22.83;28.33;99057.63;4962181;29;1586;-80
2021/10/26 05:57:40;;;;;;;;;;;;;;;22.92;27.87;99047.81;4943089;29;1481;-80
2021/10/26 06:00:06;;;;;;;;;;;;;;;22.61;28.20;99050.66;4927908;29;1879;-80
2021/10/26 06:02:37;;;;;;;;;;;;;;;22.56;28.56;99048.28;4927802;29;942;-80
2021/10/26 06:05:02;;;;;;;;;;;;;;;22.55;28.80;99052.38;4961487;29;1688;-80
2021/10/26 06:07:29;;;;;;;;;;;;;;;22.26;29.18;99058.41;4982008;28;1175;-79
2021/10/26 06:09:55;;;;;;;;;;;;;;;22.41;28.91;99052.53;4967218;28;1156;-81
2021/10/26 06:12:27;;;;;;;;;;;;;;;22.36;29.07;99054.63;4956374;28;1325;-80
2021/10/26 06:14:53;;;;;;;;;;;;;;;22.34;28.91;99059.94;4948210;29;1695;-80
2021/10/26 06:17:18;;;;;;;;;;;;;;;22.04;29.55;99062.69;4958890;29;1352;-80
2021/10/26 06:19:47;;;;;;;;;;;;;;;22.17;29.52;99066.59;4963571;29;1895;-80
2021/10/26 06:22:13;;;;;;;;;;;;;;;22.10;29.63;99061.00;4950368;29;1104;-81
2021/10/26 06:24:39;;;;;;;;;;;;;;;22.26;29.11;99058.41;4944358;29;1604;-80
2021/10/26 06:27:04;;;;;;;;;;;;;;;22.75;28.39;99063.84;4945226;29;1139;-80
2021/10/26 06:29:30;;;;;;;;;;;;;;;22.96;28.11;99057.06;4962796;29;1062;-80
2021/10/26 06:32:14;;;;;;;;;;;;;;;22.83;28.14;99068.97;4965084;29;984;-80
2021/10/26 06:34:39;;;;;;;;;;;;;;;22.88;28.38;99054.31;4944887;29;1659;-80
2021/10/26 06:37:07;;;;;;;;;;;;;;;22.80;28.34;99058.50;4892033;29;1201;-80
2021/10/26 06:39:33;;;;;;;;;;;;;;;23.19;27.44;99057.09;4900830;29;1338;-74
2021/10/26 06:42:02;;;;;;;;;;;;;;;23.29;27.36;99067.47;4898644;29;1911;-75
2021/10/26 06:44:46;;;;;;;;;;;;;;;23.02;27.95;99058.19;4888098;29;1955;-81
2021/10/26 06:47:40;;;;;;;;;;;;;;;22.84;28.29;99059.22;4900431;29;1881;-81
2021/10/26 06:50:25;;;;;;;;;;;;;;;22.74;28.57;99053.69;4910056;29;1166;-80
2021/10/26 06:53:09;;;;;;;;;;;;;;;22.74;28.91;99060.19;4905776;29;938;-80
2021/10/26 06:56:14;;;;;;;;;;;;;;;22.63;28.82;99065.19;4859309;29;1756;-80
2021/10/26 06:58:59;;;;;;;;;;;;;;;22.55;29.32;99058.03;4790974;30;1660;-79
2021/10/26 07:01:43;;;;;;;;;;;;;;;22.65;29.09;99061.97;4792968;30;1955;-78
2021/10/26 07:04:20;;;;;;;;;;;;;;;23.00;28.55;99066.31;4792911;29;1237;-84
2021/10/26 07:07:04;;;;;;;;;;;;;;;22.87;28.58;99068.91;4779252;30;1146;-77
2021/10/26 07:09:43;;;;;;;;;;;;;;;22.85;28.82;99069.34;4824391;29;1770;-75
2021/10/26 07:12:16;;;;;;;;;;;;;;;22.84;28.93;99064.09;4786033;29;1203;-78
2021/10/26 07:14:43;;;;;;;;;;;;;;;22.84;28.92;99055.56;4861934;29;1169;-81
2021/10/26 07:17:10;;;;;;;;;;;;;;;22.52;29.46;99064.56;4835210;29;1153;-79
2021/10/26 07:19:35;;;;;;;;;;;;;;;22.65;29.39;99051.41;4880195;29;1720;-79
2021/10/26 07:22:20;;;;;;;;;;;;;;;22.65;29.29;99057.09;4863266;29;1654;-78
2021/10/26 07:25:07;;;;;;;;;;;;;;;22.65;29.16;99062.75;4862262;29;964;-79
2021/10/26 07:27:33;;;;;;;;;;;;;;;22.55;29.42;99058.03;4881647;29;1415;-79
2021/10/26 07:30:00;;;;;;;;;;;;;;;22.55;29.42;99047.50;4849024;29;1610;-79
2021/10/26 07:32:27;;;;;;;;;;;;;;;22.57;29.44;99055.56;4830414;29;1120;-79
2021/10/26 07:34:52;;;;;;;;;;;;;;;22.40;29.32;99065.13;4825568;29;1006;-78
2021/10/26 07:37:24;;;;;;;;;;;;;;;22.50;29.45;99061.34;4881195;29;1909;-79
2021/10/26 07:40:07;;;;;;;;;;;;;;;22.25;29.71;99062.47;4880722;29;1907;-78
2021/10/26 07:42:52;;;;;;;;;;;;;;;22.54;29.26;99062.09;4867931;29;875;-78
2021/10/26 07:45:50;;;;;;;;;;;;;;;22.41;29.36;99049.72;4900086;29;991;-79
2021/10/26 07:48:16;;;;;;;;;;;;;;;22.12;30.21;99060.59;4883852;29;1389;-79
2021/10/26 07:50:42;;;;;;;;;;;;;;;22.31;29.78;99066.44;4899934;29;1616;-78
2021/10/26 07:53:08;;;;;;;;;;;;;;;22.87;29.11;99063.25;4898962;29;1247;-78
2021/10/26 07:55:47;;;;;;;;;;;;;;;23.16;28.00;99057.97;4894569;29;1435;-78
2021/10/26 07:58:12;;;;;;;;;;;;;;;22.88;28.48;99057.16;4898925;29;1153;-78
2021/10/26 08:00:39;;;;;;;;;;;;;;;22.68;28.77;99061.09;4898983;29;1907;-78
2021/10/26 08:03:30;;;;;;;;;;;;;;;22.57;28.89;99055.56;4861011;29;1004;-78
2021/10/26 08:05:59;;;;;;;;;;;;;;;22.56;28.97;99065.31;4862365;29;1159;-78
2021/10/26 08:08:25;;;;;;;;;;;;;;;22.53;29.32;99054.81;4886121;29;1726;-78
2021/10/26 08:10:51;;;;;;;;;;;;;;;22.48;29.19;99052.44;4881549;29;1371;-78
2021/10/26 08:13:17;;;;;;;;;;;;;;;22.39;29.70;99055.81;4879913;29;1636;-78
2021/10/26 08:15:44;;;;;;;;;;;;;;;22.40;29.38;99051.75;4881078;29;1091;-78
2021/10/26 08:18:10;;;;;;;;;;;;;;;22.45;29.46;99047.63;4883221;29;1659;-78
2021/10/26 08:20:36;;;;;;;;;;;;;;;22.42;29.52;99054.16;4867707;29;1907;-78
2021/10/26 08:23:01;;;;;;;;;;;;;;;22.45;29.23;99041.97;4867779;29;1123;-78
2021/10/26 08:25:29;;;;;;;;;;;;;;;22.38;29.35;99050.56;4867717;29;1625;-78
2021/10/26 08:27:57;;;;;;;;;;;;;;;22.42;29.43;99042.81;4867451;29;1617;-78
2021/10/26 08:32:58;;;;;;;;;;;;;;;22.39;29.36;99052.97;4905678;29;1394;-78
2021/10/26 08:35:31;;;;;;;;;;;;;;;22.45;29.48;99053.31;4936508;29;1193;-78
2021/10/26 08:38:01;;;;;;;;;;;;;;;22.39;29.62;99055.81;4920445;29;1638;-79
2021/10/26 08:40:30;;;;;;;;;;;;;;;22.48;29.58;99053.25;4938225;29;2005;-77
2021/10/26 08:43:03;;;;;;;;;;;;;;;22.55;29.44;99052.38;4922795;29;1177;-77
2021/10/26 08:45:29;;;;;;;;;;;;;;;22.61;29.18;99056.31;4890267;29;1217;-78
2021/10/26 08:47:57;;;;;;;;;;;;;;;22.29;29.39;99063.22;4902244;29;1543;-79
2021/10/26 08:50:42;;;;;;;;;;;;;;;22.03;29.76;99058.25;4924756;29;1053;-77
2021/10/26 08:53:10;;;;;;;;;;;;;;;21.88;30.89;99060.44;4957569;28;1151;-78
2021/10/26 08:55:59;;;;;;;;;;;;;;;22.72;30.03;99068.31;4958533;28;930;-79
2021/10/26 08:58:44;;;;;;;;;;;;;;;22.36;30.33;99068.00;4957626;28;1491;-78
2021/10/26 09:01:10;;;;;;;;;;;;;;;22.39;30.23;99061.50;4958962;28;1987;-78
2021/10/26 09:03:46;;;;;;;;;;;;;;;22.36;30.14;99057.47;4957975;28;1378;-78
2021/10/26 09:06:11;;;;;;;;;;;;;;;22.34;30.06;99065.59;4978138;28;1087;-78
2021/10/26 09:08:39;;;;;;;;;;;;;;;22.27;30.55;99057.16;4951457;28;1701;-78
2021/10/26 09:17:03;;;;;;;;;;;;;;;22.26;30.15;99052.72;4953991;28;1537;-78
2021/10/26 09:20:01;;;;;;;;;;;;;;;22.27;30.08;99054.31;4952000;28;1902;-78
2021/10/26 09:22:35;;;;;;;;;;;;;;;22.21;30.15;99049.56;4920016;29;1166;-78
2021/10/26 09:25:02;;;;;;;;;;;;;;;22.08;30.22;99052.94;4884542;29;1240;-77
2021/10/26 09:27:28;;;;;;;;;;;;;;;22.14;30.07;99050.47;4898674;29;1320;-78
2021/10/26 09:29:55;;;;;;;;;;;;;;;22.10;30.09;99044.00;4918414;29;1583;-78
2021/10/26 09:32:21;;;;;;;;;;;;;;;22.07;29.98;99040.00;4920495;29;966;-78
2021/10/26 09:34:50;;;;;;;;;;;;;;;22.11;29.74;99037.13;4881849;29;1004;-78
2021/10/26 09:37:17;;;;;;;;;;;;;;;22.11;30.02;99034.28;4882196;29;972;-78
2021/10/26 09:39:49;;;;;;;;;;;;;;;22.16;29.74;99035.84;4867398;29;1778;-78
2021/10/26 09:42:15;;;;;;;;;;;;;;;22.16;29.75;99035.84;4864119;29;1911;-78
2021/10/26 09:44:41;;;;;;;;;;;;;;;22.09;29.84;99037.53;4845642;29;1015;-78
2021/10/26 09:47:09;;;;;;;;;;;;;;;22.07;29.69;99027.81;4877538;29;1493;-78
2021/10/26 09:49:36;;;;;;;;;;;;;;;22.07;29.88;99027.81;4862841;29;1338;-78
2021/10/26 09:52:12;;;;;;;;;;;;;;;22.19;29.43;99023.69;4863883;29;1136;-78
2021/10/26 09:54:40;;;;;;;;;;;;;;;22.16;29.35;99019.66;4862748;29;997;-77
2021/10/26 09:57:06;;;;;;;;;;;;;;;22.12;29.76;99015.25;4882463;29;1632;-78
2021/10/26 09:59:35;;;;;;;;;;;;;;;22.06;29.58;99014.88;4886607;29;975;-78
2021/10/26 10:02:01;;;;;;;;;;;;;;;22.03;29.73;99027.09;4900258;29;1911;-78
2021/10/26 10:04:32;;;;;;;;;;;;;;;22.10;29.49;99004.31;4900262;29;1039;-78
2021/10/26 10:06:59;;;;;;;;;;;;;;;22.09;29.17;99005.53;4915086;29;1836;-78
2021/10/26 10:09:24;;;;;;;;;;;;;;;21.88;29.84;99005.81;4919186;29;994;-78
2021/10/26 10:12:07;;;;;;;;;;;;;;;22.04;29.52;99003.19;4887750;29;963;-78
2021/10/26 10:14:37;;;;;;;;;;;;;;;21.96;29.46;99002.44;4931572;29;2007;-78
2021/10/26 10:17:04;;;;;;;;;;;;;;;21.91;29.49;99002.13;4964516;28;1681;-78
2021/10/26 10:19:30;;;;;;;;;;;;;;;21.96;29.59;98991.13;4939312;28;943;-78
2021/10/26 10:21:56;;;;;;;;;;;;;;;21.97;29.34;98989.13;4976538;28;1973;-78
2021/10/26 10:24:21;;;;;;;;;;;;;;;21.99;29.23;98986.66;4976336;28;1023;-78
2021/10/26 10:26:49;;;;;;;;;;;;;;;21.89;29.36;98981.91;4990245;28;1667;-78
2021/10/26 10:29:14;;;;;;;;;;;;;;;21.93;29.08;98977.00;4995742;28;965;-78
2021/10/26 10:31:39;;;;;;;;;;;;;;;21.93;29.35;98977.00;4996383;28;1176;-78
2021/10/26 10:34:05;;;;;;;;;;;;;;;21.92;29.32;98964.06;4974753;28;987;-78
2021/10/26 10:36:30;;;;;;;;;;;;;;;21.92;29.33;98959.22;4935984;28;1594;-77
2021/10/26 10:39:03;;;;;;;;;;;;;;;21.98;29.05;98962.38;4976106;28;960;-78
2021/10/26 10:41:30;;;;;;;;;;;;;;;21.87;29.36;98967.38;4976381;28;1919;-78
2021/10/26 10:43:56;;;;;;;;;;;;;;;21.85;29.50;98968.56;4975613;28;1182;-78
2021/10/26 10:46:40;;;;;;;;;;;;;;;21.78;29.46;98959.38;4976053;28;1503;-78
2021/10/26 10:49:27;;;;;;;;;;;;;;;21.67;29.35;98956.69;4975571;28;962;-78
2021/10/26 10:51:56;;;;;;;;;;;;;;;21.79;29.25;98953.28;4974882;28;1147;-78
2021/10/26 10:54:54;;;;;;;;;;;;;;;21.83;29.26;98945.53;4956643;29;935;-78
2021/10/26 10:57:33;;;;;;;;;;;;;;;21.88;29.08;98951.97;4962778;28;1637;-78
2021/10/26 11:00:26;;;;;;;;;;;;;;;21.81;28.89;98948.00;4940448;29;1965;-78
2021/10/26 11:02:52;;;;;;;;;;;;;;;21.76;29.04;98942.81;4955637;29;946;-78
2021/10/26 11:05:36;;;;;;;;;;;;;;;21.75;29.22;98944.03;4955511;29;1634;-78
2021/10/26 11:08:02;;;;;;;;;;;;;;;21.71;29.27;98940.44;4937171;29;1172;-78
2021/10/26 11:10:48;;;;;;;;;;;;;;;21.69;29.42;98937.22;4938637;29;1019;-78
2021/10/26 11:13:23;;;;;;;;;;;;;;;21.75;29.25;98927.03;4917786;29;997;-78
2021/10/26 11:15:50;;;;;;;;;;;;;;;21.83;28.86;98928.56;4899365;29;1567;-78
2021/10/26 11:18:34;;;;;;;;;;;;;;;22.01;28.72;98933.16;4880079;29;1058;-78
2021/10/26 11:21:06;;;;;;;;;;;;;;;21.77;28.78;98930.25;4899189;29;1910;-78
2021/10/26 11:23:35;;;;;;;;;;;;;;;21.85;28.79;98926.09;4882937;29;1736;-78
2021/10/26 11:26:02;;;;;;;;;;;;;;;21.68;28.88;98915.78;4834289;29;1755;-78
2021/10/26 11:28:32;;;;;;;;;;;;;;;21.77;28.99;98913.25;4824598;29;1622;-78
2021/10/26 11:31:00;;;;;;;;;;;;;;;21.64;29.10;98905.72;4862266;29;1790;-78
2021/10/26 11:33:28;;;;;;;;;;;;;;;21.70;29.07;98893.50;4874395;29;1756;-78
2021/10/26 11:36:07;;;;;;;;;;;;;;;21.75;28.80;98895.84;4880722;29;1150;-78
2021/10/26 11:38:44;;;;;;;;;;;;;;;21.67;29.05;98899.22;4861147;29;996;-78
2021/10/26 11:41:11;;;;;;;;;;;;;;;21.70;28.94;98896.31;4846976;29;1972;-78
2021/10/26 11:43:38;;;;;;;;;;;;;;;21.79;28.63;98893.78;4845611;29;1568;-78
2021/10/26 11:46:03;;;;;;;;;;;;;;;21.70;28.69;98898.38;4870551;29;1282;-78
2021/10/26 11:48:48;;;;;;;;;;;;;;;21.69;29.01;98894.72;4895796;29;1021;-78
2021/10/26 11:51:24;;;;;;;;;;;;;;;21.62;29.16;98892.00;4831119;29;1008;-78
2021/10/26 11:53:51;;;;;;;;;;;;;;;21.68;28.98;98889.50;4827454;29;1574;-78
2021/10/26 11:56:17;;;;;;;;;;;;;;;21.63;29.20;98892.81;4853986;29;1048;-78
2021/10/26 11:58:52;;;;;;;;;;;;;;;21.63;29.13;98884.31;4902122;29;1001;-78
2021/10/26 12:01:17;;;;;;;;;;;;;;;21.61;29.19;98893.22;4883037;29;1968;-78
2021/10/26 12:03:46;;;;;;;;;;;;;;;21.69;29.12;98883.41;4883215;29;1768;-78
2021/10/26 12:06:11;;;;;;;;;;;;;;;21.75;29.15;98887.38;4872589;29;1075;-78
2021/10/26 12:08:39;;;;;;;;;;;;;;;21.78;29.02;98885.72;4909736;29;1053;-78
2021/10/26 12:11:05;;;;;;;;;;;;;;;21.81;29.04;98882.84;4903225;29;988;-78
2021/10/26 12:13:31;;;;;;;;;;;;;;;21.82;28.90;98880.81;4899708;29;1621;-78
2021/10/26 12:15:58;;;;;;;;;;;;;;;21.78;29.02;98880.06;4902908;29;1693;-78
2021/10/26 12:18:32;;;;;;;;;;;;;;;21.74;29.27;98870.81;4907407;29;1648;-78
2021/10/26 12:21:04;;;;;;;;;;;;;;;21.82;29.19;98870.28;4903292;29;1993;-78
2021/10/26 12:23:30;;;;;;;;;;;;;;;21.61;29.54;98876.25;4879429;29;1491;-78
2021/10/26 12:25:58;;;;;;;;;;;;;;;21.82;29.04;98875.94;4883094;29;1055;-78
2021/10/26 12:28:24;;;;;;;;;;;;;;;21.96;29.00;98871.31;4859692;29;1606;-78
2021/10/26 12:30:51;;;;;;;;;;;;;;;21.64;29.26;98874.56;4848076;29;1280;-78
2021/10/26 12:33:23;;;;;;;;;;;;;;;21.73;29.16;98872.84;4879494;29;994;-77
2021/10/26 12:35:53;;;;;;;;;;;;;;;21.69;29.31;98866.41;4884173;29;1038;-78
2021/10/26 12:38:28;;;;;;;;;;;;;;;21.69;29.24;98880.56;4901427;29;1600;-78
2021/10/26 12:40:54;;;;;;;;;;;;;;;21.69;29.29;98872.06;4959943;29;1911;-78
2021/10/26 12:43:23;;;;;;;;;;;;;;;21.73;29.26;98878.50;4942553;29;1061;-78
2021/10/26 12:45:48;;;;;;;;;;;;;;;21.72;29.04;98871.22;4959734;29;930;-78
2021/10/26 12:48:14;;;;;;;;;;;;;;;21.61;29.26;98876.25;4939267;29;1709;-78
2021/10/26 12:50:48;;;;;;;;;;;;;;;21.62;29.57;98877.03;4940390;29;946;-78
2021/10/26 12:53:13;;;;;;;;;;;;;;;21.65;29.33;98871.31;4997825;28;1000;-78
2021/10/26 12:55:42;;;;;;;;;;;;;;;21.69;29.39;98868.44;4997723;28;1687;-78
2021/10/26 12:58:26;;;;;;;;;;;;;;;21.77;29.04;98873.59;4996320;28;994;-78
2021/10/26 13:00:51;;;;;;;;;;;;;;;21.74;29.02;98862.31;4998078;28;1906;-78
2021/10/26 13:03:21;;;;;;;;;;;;;;;21.81;28.91;98856.53;4996939;28;1011;-78
2021/10/26 13:05:51;;;;;;;;;;;;;;;21.72;29.21;98864.78;4981943;28;1586;-78
2021/10/26 13:08:18;;;;;;;;;;;;;;;21.70;29.36;98861.53;4957842;29;993;-78
2021/10/26 13:10:43;;;;;;;;;;;;;;;21.73;29.13;98867.16;4959294;29;933;-78
2021/10/26 13:13:08;;;;;;;;;;;;;;;21.70;29.27;98862.34;4942149;29;971;-78
2021/10/26 13:15:34;;;;;;;;;;;;;;;21.79;28.87;98862.63;4958772;29;1618;-78
2021/10/26 13:18:04;;;;;;;;;;;;;;;21.61;29.27;98859.25;4976037;28;1525;-78